首页
METAR-TAF:

METAR-TAF

机场 :

拉巴斯, 墨西哥

纬度: 24-04N, 经度: 110-22W, 海拔: 21米

当前天气观测

该预报发布于57分钟前的15:45 UTC
风速7节,风向
温度 29°C
湿度 40%
气压 1014 hPa
能見度: 16.1公里
散云层高于10000英尺
多云层高于20000英尺

METAR: MMLP 211545Z 19007KT 10SM SCT100 BKN200 29/14 A2993 RMK 8/038 ISOL SC HZ

时间: 10:42 (16:42 UTC)

预报

该预报发布于11小时和5分钟前的05:37 UTC
预报有效从21日的 06点(UTC)到 22日的 06点(UTC)
风速10节,风向
能見度: 10公里
天空无云
从 21日的 1500点(UTC)
风速10节,风向西
能見度: 10公里
天空无云
成为
从 21日的 18点(UTC)到 21日的 20点(UTC)
散云层高于2000英尺
从 22日的 0000点(UTC)
风速10节,风向
能見度: 10公里
散云层高于2000英尺

TAF: MMLP 210537Z 2106/2206 18010KT P6SM SKC FM211500 27010KT P6SM SKC BECMG 2118/2120 SCT020 FM220000 18010KT P6SM SCT020

超过4000个机场的气象观测和天气预报(METAR&TAF报告)。

可查询的气象台以黄色和红色小点在地图上表示。

将鼠标移到小点上方,可查看气象台名称。

然后点击查看天气观测和预报。

如需切换地图:点击带黑十字的绿色按钮放大地图;点击带横线的绿色按钮缩小地图;或者点击绿色箭头查看邻近地区的地图。


METAR-TAF: